sensor_id;sensor_type;location;lat;lon;timestamp;pressure;altitude;pressure_sealevel;temperature
22269;BMP280;11303;50.772;19.670;2023-08-07T00:01:29;97775.56;;;13.30
22269;BMP280;11303;50.772;19.670;2023-08-07T00:03:31;97772.94;;;13.26
22269;BMP280;11303;50.772;19.670;2023-08-07T00:05:33;97763.28;;;13.20
22269;BMP280;11303;50.772;19.670;2023-08-07T00:07:35;97776.72;;;13.18
22269;BMP280;11303;50.772;19.670;2023-08-07T00:09:36;97770.41;;;13.16
22269;BMP280;11303;50.772;19.670;2023-08-07T00:11:38;97773.00;;;13.16
22269;BMP280;11303;50.772;19.670;2023-08-07T00:13:39;97760.69;;;13.16
22269;BMP280;11303;50.772;19.670;2023-08-07T00:15:41;97759.22;;;13.15
22269;BMP280;11303;50.772;19.670;2023-08-07T00:17:43;97754.38;;;13.14
22269;BMP280;11303;50.772;19.670;2023-08-07T00:19:45;97753.66;;;13.13
22269;BMP280;11303;50.772;19.670;2023-08-07T00:21:46;97748.44;;;13.10
22269;BMP280;11303;50.772;19.670;2023-08-07T00:23:49;97742.50;;;13.05
22269;BMP280;11303;50.772;19.670;2023-08-07T00:25:51;97751.47;;;13.01
22269;BMP280;11303;50.772;19.670;2023-08-07T00:27:53;97758.94;;;12.95
22269;BMP280;11303;50.772;19.670;2023-08-07T00:29:55;97747.75;;;12.91
22269;BMP280;11303;50.772;19.670;2023-08-07T00:31:56;97754.09;;;12.86
22269;BMP280;11303;50.772;19.670;2023-08-07T00:33:59;97751.53;;;12.83
22269;BMP280;11303;50.772;19.670;2023-08-07T00:36:01;97750.03;;;12.78
22269;BMP280;11303;50.772;19.670;2023-08-07T00:38:03;97746.31;;;12.79
22269;BMP280;11303;50.772;19.670;2023-08-07T00:40:05;97740.38;;;12.75
22269;BMP280;11303;50.772;19.670;2023-08-07T00:42:07;97744.50;;;12.69
22269;BMP280;11303;50.772;19.670;2023-08-07T00:44:09;97739.66;;;12.64
22269;BMP280;11303;50.772;19.670;2023-08-07T00:46:11;97733.69;;;12.56
22269;BMP280;11303;50.772;19.670;2023-08-07T00:48:14;97721.03;;;12.51
22269;BMP280;11303;50.772;19.670;2023-08-07T00:50:18;97722.19;;;12.46
22269;BMP280;11303;50.772;19.670;2023-08-07T00:52:20;97720.69;;;12.45
22269;BMP280;11303;50.772;19.670;2023-08-07T00:54:21;97723.28;;;12.42
22269;BMP280;11303;50.772;19.670;2023-08-07T00:56:23;97712.16;;;12.38
22269;BMP280;11303;50.772;19.670;2023-08-07T00:58:25;97716.22;;;12.35
22269;BMP280;11303;50.772;19.670;2023-08-07T01:00:28;97716.22;;;12.39
22269;BMP280;11303;50.772;19.670;2023-08-07T01:02:31;97717.38;;;12.38
22269;BMP280;11303;50.772;19.670;2023-08-07T01:04:32;97711.75;;;12.36
22269;BMP280;11303;50.772;19.670;2023-08-07T01:06:34;97706.94;;;12.34
22269;BMP280;11303;50.772;19.670;2023-08-07T01:08:36;97717.38;;;12.34
22269;BMP280;11303;50.772;19.670;2023-08-07T01:10:45;97714.03;;;12.34
22269;BMP280;11303;50.772;19.670;2023-08-07T01:12:55;97714.75;;;12.34
22269;BMP280;11303;50.772;19.670;2023-08-07T01:15:12;97714.75;;;12.34
22269;BMP280;11303;50.772;19.670;2023-08-07T01:17:17;97715.91;;;12.33
22269;BMP280;11303;50.772;19.670;2023-08-07T01:19:28;97712.53;;;12.33
22269;BMP280;11303;50.772;19.670;2023-08-07T01:21:32;97702.09;;;12.33
22269;BMP280;11303;50.772;19.670;2023-08-07T01:23:33;97709.19;;;12.32
22269;BMP280;11303;50.772;19.670;2023-08-07T01:25:35;97705.06;;;12.31
22269;BMP280;11303;50.772;19.670;2023-08-07T01:31:53;97715.13;;;12.29
22269;BMP280;11303;50.772;19.670;2023-08-07T01:34:04;97719.59;;;12.29
22269;BMP280;11303;50.772;19.670;2023-08-07T01:36:07;97719.59;;;12.29
22269;BMP280;11303;50.772;19.670;2023-08-07T01:38:11;97721.47;;;12.32
22269;BMP280;11303;50.772;19.670;2023-08-07T01:40:15;97718.88;;;12.32
22269;BMP280;11303;50.772;19.670;2023-08-07T01:42:17;97721.47;;;12.32
22269;BMP280;11303;50.772;19.670;2023-08-07T01:44:19;97719.22;;;12.30
22269;BMP280;11303;50.772;19.670;2023-08-07T01:46:21;97720.34;;;12.29
22269;BMP280;11303;50.772;19.670;2023-08-07T01:48:23;97711.78;;;12.29
22269;BMP280;11303;50.772;19.670;2023-08-07T01:50:27;97719.59;;;12.29
22269;BMP280;11303;50.772;19.670;2023-08-07T01:52:30;97721.06;;;12.30
22269;BMP280;11303;50.772;19.670;2023-08-07T01:54:32;97727.03;;;12.30
22269;BMP280;11303;50.772;19.670;2023-08-07T01:56:33;97728.53;;;12.31
22269;BMP280;11303;50.772;19.670;2023-08-07T01:58:35;97729.28;;;12.32
22269;BMP280;11303;50.772;19.670;2023-08-07T02:00:37;97732.63;;;12.32
22269;BMP280;11303;50.772;19.670;2023-08-07T02:02:38;97733.38;;;12.33
22269;BMP280;11303;50.772;19.670;2023-08-07T02:04:40;97730.75;;;12.33
22269;BMP280;11303;50.772;19.670;2023-08-07T02:06:42;97731.88;;;12.35
22269;BMP280;11303;50.772;19.670;2023-08-07T02:08:43;97729.25;;;12.35
22269;BMP280;11303;50.772;19.670;2023-08-07T02:10:45;97730.00;;;12.36
22269;BMP280;11303;50.772;19.670;2023-08-07T02:12:47;97744.91;;;12.35
22269;BMP280;11303;50.772;19.670;2023-08-07T02:14:48;97742.69;;;12.34
22269;BMP280;11303;50.772;19.670;2023-08-07T02:16:50;97741.94;;;12.33
22269;BMP280;11303;50.772;19.670;2023-08-07T02:18:52;97747.91;;;12.34
22269;BMP280;11303;50.772;19.670;2023-08-07T02:20:53;97744.16;;;12.35
22269;BMP280;11303;50.772;19.670;2023-08-07T02:22:55;97752.38;;;12.33
22269;BMP280;11303;50.772;19.670;2023-08-07T02:24:56;97744.56;;;12.33
22269;BMP280;11303;50.772;19.670;2023-08-07T02:26:58;97751.25;;;12.31
22269;BMP280;11303;50.772;19.670;2023-08-07T02:29:00;97744.53;;;12.30
22269;BMP280;11303;50.772;19.670;2023-08-07T02:31:01;97746.75;;;12.27
22269;BMP280;11303;50.772;19.670;2023-08-07T02:33:03;97745.66;;;12.29
22269;BMP280;11303;50.772;19.670;2023-08-07T02:35:05;97750.09;;;12.28
22269;BMP280;11303;50.772;19.670;2023-08-07T02:37:07;97742.28;;;12.28
22269;BMP280;11303;50.772;19.670;2023-08-07T02:39:08;97738.56;;;12.29
22269;BMP280;11303;50.772;19.670;2023-08-07T02:41:10;97747.13;;;12.30
22269;BMP280;11303;50.772;19.670;2023-08-07T02:43:12;97739.31;;;12.30
22269;BMP280;11303;50.772;19.670;2023-08-07T02:45:13;97725.91;;;12.27
22269;BMP280;11303;50.772;19.670;2023-08-07T02:47:15;97722.22;;;12.25
22269;BMP280;11303;50.772;19.670;2023-08-07T02:49:17;97733.72;;;12.27
22269;BMP280;11303;50.772;19.670;2023-08-07T02:51:18;97730.38;;;12.27
22269;BMP280;11303;50.772;19.670;2023-08-07T02:53:20;97747.53;;;12.24
22269;BMP280;11303;50.772;19.670;2023-08-07T02:55:21;97737.47;;;12.23
22269;BMP280;11303;50.772;19.670;2023-08-07T02:57:23;97734.50;;;12.24
22269;BMP280;11303;50.772;19.670;2023-08-07T02:59:26;97729.66;;;12.23
22269;BMP280;11303;50.772;19.670;2023-08-07T03:01:28;97727.41;;;12.21
22269;BMP280;11303;50.772;19.670;2023-08-07T03:03:30;97737.47;;;12.23
22269;BMP280;11303;50.772;19.670;2023-08-07T03:05:32;97737.50;;;12.19
22269;BMP280;11303;50.772;19.670;2023-08-07T03:07:33;97733.75;;;12.17
22269;BMP280;11303;50.772;19.670;2023-08-07T03:09:35;97744.91;;;12.14
22269;BMP280;11303;50.772;19.670;2023-08-07T03:11:37;97754.97;;;12.12
22269;BMP280;11303;50.772;19.670;2023-08-07T03:13:38;97746.03;;;12.09
22269;BMP280;11303;50.772;19.670;2023-08-07T03:15:40;97744.91;;;12.06
22269;BMP280;11303;50.772;19.670;2023-08-07T03:17:42;97738.59;;;12.04
22269;BMP280;11303;50.772;19.670;2023-08-07T03:19:43;97736.38;;;12.02
22269;BMP280;11303;50.772;19.670;2023-08-07T03:21:45;97737.09;;;12.03
22269;BMP280;11303;50.772;19.670;2023-08-07T03:23:47;97743.78;;;12.00
22269;BMP280;11303;50.772;19.670;2023-08-07T03:25:49;97737.84;;;12.00
22269;BMP280;11303;50.772;19.670;2023-08-07T03:27:55;97739.72;;;12.03
22269;BMP280;11303;50.772;19.670;2023-08-07T03:29:56;97742.28;;;12.06
22269;BMP280;11303;50.772;19.670;2023-08-07T03:31:58;97747.53;;;12.10
22269;BMP280;11303;50.772;19.670;2023-08-07T03:34:00;97747.16;;;12.12
22269;BMP280;11303;50.772;19.670;2023-08-07T03:36:01;97741.19;;;12.15
22269;BMP280;11303;50.772;19.670;2023-08-07T03:38:03;97746.41;;;12.15
22269;BMP280;11303;50.772;19.670;2023-08-07T03:40:05;97751.97;;;12.17
22269;BMP280;11303;50.772;19.670;2023-08-07T03:42:07;97758.31;;;12.16
22269;BMP280;11303;50.772;19.670;2023-08-07T03:44:08;97762.03;;;12.18
22269;BMP280;11303;50.772;19.670;2023-08-07T03:46:10;97756.06;;;12.21
22269;BMP280;11303;50.772;19.670;2023-08-07T03:48:12;97765.72;;;12.28
22269;BMP280;11303;50.772;19.670;2023-08-07T03:50:14;97767.59;;;12.35
22269;BMP280;11303;50.772;19.670;2023-08-07T03:52:16;97766.84;;;12.45
22269;BMP280;11303;50.772;19.670;2023-08-07T03:54:19;97780.25;;;12.54
22269;BMP280;11303;50.772;19.670;2023-08-07T03:56:21;97769.78;;;12.65
22269;BMP280;11303;50.772;19.670;2023-08-07T03:58:22;97793.25;;;12.83
22269;BMP280;11303;50.772;19.670;2023-08-07T04:00:24;97802.13;;;13.03
22269;BMP280;11303;50.772;19.670;2023-08-07T04:02:26;97818.81;;;13.27
22269;BMP280;11303;50.772;19.670;2023-08-07T04:04:29;97826.22;;;13.36
22269;BMP280;11303;50.772;19.670;2023-08-07T04:06:30;97827.31;;;13.39
22269;BMP280;11303;50.772;19.670;2023-08-07T04:08:32;97837.41;;;13.40
22269;BMP280;11303;50.772;19.670;2023-08-07T04:10:34;97837.75;;;13.42
22269;BMP280;11303;50.772;19.670;2023-08-07T04:12:35;97847.44;;;13.45
22269;BMP280;11303;50.772;19.670;2023-08-07T04:14:37;97850.78;;;13.50
22269;BMP280;11303;50.772;19.670;2023-08-07T04:16:39;97855.97;;;13.57
22269;BMP280;11303;50.772;19.670;2023-08-07T04:18:41;97854.84;;;13.61
22269;BMP280;11303;50.772;19.670;2023-08-07T04:20:42;97859.28;;;13.68
22269;BMP280;11303;50.772;19.670;2023-08-07T04:22:44;97862.22;;;13.77
22269;BMP280;11303;50.772;19.670;2023-08-07T04:24:46;97867.72;;;13.90
22269;BMP280;11303;50.772;19.670;2023-08-07T04:26:48;97870.97;;;14.08
22269;BMP280;11303;50.772;19.670;2023-08-07T04:28:49;97866.50;;;14.13
22269;BMP280;11303;50.772;19.670;2023-08-07T04:30:51;97863.06;;;14.19
22269;BMP280;11303;50.772;19.670;2023-08-07T04:32:53;97864.53;;;14.24
22269;BMP280;11303;50.772;19.670;2023-08-07T04:34:55;97869.34;;;14.29
22269;BMP280;11303;50.772;19.670;2023-08-07T04:36:57;97858.78;;;14.43
22269;BMP280;11303;50.772;19.670;2023-08-07T04:38:58;97870.59;;;14.59
22269;BMP280;11303;50.772;19.670;2023-08-07T04:41:00;97865.94;;;14.81
22269;BMP280;11303;50.772;19.670;2023-08-07T04:43:02;97874.53;;;15.16
22269;BMP280;11303;50.772;19.670;2023-08-07T04:45:04;97875.09;;;15.61
22269;BMP280;11303;50.772;19.670;2023-08-07T04:47:05;97877.03;;;16.12
22269;BMP280;11303;50.772;19.670;2023-08-07T04:49:07;97875.56;;;16.54
22269;BMP280;11303;50.772;19.670;2023-08-07T04:51:09;97893.09;;;16.61
22269;BMP280;11303;50.772;19.670;2023-08-07T04:53:10;97865.91;;;16.91
22269;BMP280;11303;50.772;19.670;2023-08-07T04:55:12;97861.78;;;17.46
22269;BMP280;11303;50.772;19.670;2023-08-07T04:57:14;97930.28;;;17.92
22269;BMP280;11303;50.772;19.670;2023-08-07T04:59:15;97885.38;;;18.32
22269;BMP280;11303;50.772;19.670;2023-08-07T05:01:17;97887.25;;;18.90
22269;BMP280;11303;50.772;19.670;2023-08-07T05:03:19;97891.94;;;19.50
22269;BMP280;11303;50.772;19.670;2023-08-07T05:05:21;97849.00;;;19.75
22269;BMP280;11303;50.772;19.670;2023-08-07T05:07:23;97837.31;;;19.76
22269;BMP280;11303;50.772;19.670;2023-08-07T05:09:25;97849.00;;;19.75
22269;BMP280;11303;50.772;19.670;2023-08-07T05:11:26;97841.16;;;19.49
22269;BMP280;11303;50.772;19.670;2023-08-07T05:13:28;97837.75;;;18.97
22269;BMP280;11303;50.772;19.670;2023-08-07T05:15:30;97832.16;;;18.41
22269;BMP280;11303;50.772;19.670;2023-08-07T05:17:32;97828.00;;;17.81
22269;BMP280;11303;50.772;19.670;2023-08-07T05:19:34;97834.47;;;17.44
22269;BMP280;11303;50.772;19.670;2023-08-07T05:21:36;97829.88;;;17.11
22269;BMP280;11303;50.772;19.670;2023-08-07T05:23:38;97840.25;;;16.99
22269;BMP280;11303;50.772;19.670;2023-08-07T05:25:40;97851.56;;;16.96
22269;BMP280;11303;50.772;19.670;2023-08-07T05:27:42;97845.06;;;16.84
22269;BMP280;11303;50.772;19.670;2023-08-07T05:29:44;97844.03;;;16.78
22269;BMP280;11303;50.772;19.670;2023-08-07T05:31:46;97851.22;;;16.73
22269;BMP280;11303;50.772;19.670;2023-08-07T05:33:47;97851.38;;;16.66
22269;BMP280;11303;50.772;19.670;2023-08-07T05:35:49;97847.59;;;16.67
22269;BMP280;11303;50.772;19.670;2023-08-07T05:37:51;97855.75;;;16.73
22269;BMP280;11303;50.772;19.670;2023-08-07T05:39:53;97852.84;;;16.67
22269;BMP280;11303;50.772;19.670;2023-08-07T05:41:54;97857.38;;;16.87
22269;BMP280;11303;50.772;19.670;2023-08-07T05:43:58;97857.69;;;16.89
22269;BMP280;11303;50.772;19.670;2023-08-07T05:46:00;97863.97;;;16.95
22269;BMP280;11303;50.772;19.670;2023-08-07T05:48:02;97852.78;;;16.91
22269;BMP280;11303;50.772;19.670;2023-08-07T05:50:04;97856.69;;;16.83
22269;BMP280;11303;50.772;19.670;2023-08-07T05:52:06;97858.50;;;16.86
22269;BMP280;11303;50.772;19.670;2023-08-07T05:54:08;97859.59;;;16.88
22269;BMP280;11303;50.772;19.670;2023-08-07T05:56:10;97866.91;;;16.97
22269;BMP280;11303;50.772;19.670;2023-08-07T05:58:12;97867.75;;;17.30
22269;BMP280;11303;50.772;19.670;2023-08-07T06:00:13;97876.59;;;17.89
22269;BMP280;11303;50.772;19.670;2023-08-07T06:02:19;97889.25;;;18.56
22269;BMP280;11303;50.772;19.670;2023-08-07T06:04:21;97887.00;;;19.26
22269;BMP280;11303;50.772;19.670;2023-08-07T06:06:23;97878.13;;;19.71
22269;BMP280;11303;50.772;19.670;2023-08-07T06:08:25;97893.63;;;20.39
22269;BMP280;11303;50.772;19.670;2023-08-07T06:10:27;97893.78;;;20.57
22269;BMP280;11303;50.772;19.670;2023-08-07T06:12:28;97893.34;;;20.59
22269;BMP280;11303;50.772;19.670;2023-08-07T06:14:30;97881.03;;;20.43
22269;BMP280;11303;50.772;19.670;2023-08-07T06:16:32;97881.72;;;19.99
22269;BMP280;11303;50.772;19.670;2023-08-07T06:18:34;97890.94;;;20.17
22269;BMP280;11303;50.772;19.670;2023-08-07T06:20:35;97894.97;;;20.43
22269;BMP280;11303;50.772;19.670;2023-08-07T06:22:37;97908.31;;;20.84
22269;BMP280;11303;50.772;19.670;2023-08-07T06:24:39;97910.31;;;21.11
22269;BMP280;11303;50.772;19.670;2023-08-07T06:26:41;97894.75;;;21.53
22269;BMP280;11303;50.772;19.670;2023-08-07T06:28:42;97892.75;;;21.76
22269;BMP280;11303;50.772;19.670;2023-08-07T06:30:44;97886.44;;;22.01
22269;BMP280;11303;50.772;19.670;2023-08-07T06:32:46;97873.38;;;21.88
22269;BMP280;11303;50.772;19.670;2023-08-07T06:34:48;97883.06;;;22.00
22269;BMP280;11303;50.772;19.670;2023-08-07T06:36:49;97873.66;;;22.27
22269;BMP280;11303;50.772;19.670;2023-08-07T06:38:51;97870.69;;;22.43
22269;BMP280;11303;50.772;19.670;2023-08-07T06:40:53;97865.88;;;22.23
22269;BMP280;11303;50.772;19.670;2023-08-07T06:42:54;97855.59;;;21.79
22269;BMP280;11303;50.772;19.670;2023-08-07T06:44:56;97857.91;;;21.50
22269;BMP280;11303;50.772;19.670;2023-08-07T06:46:58;97868.03;;;21.42
22269;BMP280;11303;50.772;19.670;2023-08-07T06:48:59;97856.84;;;20.98
22269;BMP280;11303;50.772;19.670;2023-08-07T06:51:01;97860.63;;;20.34
22269;BMP280;11303;50.772;19.670;2023-08-07T06:53:03;97859.19;;;19.85
22269;BMP280;11303;50.772;19.670;2023-08-07T06:55:05;97840.50;;;19.45
22269;BMP280;11303;50.772;19.670;2023-08-07T06:57:08;97856.94;;;19.23
22269;BMP280;11303;50.772;19.670;2023-08-07T06:59:10;97858.53;;;19.34
22269;BMP280;11303;50.772;19.670;2023-08-07T07:01:11;97845.38;;;19.34
22269;BMP280;11303;50.772;19.670;2023-08-07T07:03:14;97851.88;;;19.16
22269;BMP280;11303;50.772;19.670;2023-08-07T07:05:16;97850.16;;;18.84
22269;BMP280;11303;50.772;19.670;2023-08-07T07:07:21;97850.94;;;18.55
22269;BMP280;11303;50.772;19.670;2023-08-07T07:09:22;97859.81;;;18.16
22269;BMP280;11303;50.772;19.670;2023-08-07T07:11:24;97853.13;;;17.82
22269;BMP280;11303;50.772;19.670;2023-08-07T07:13:26;97851.38;;;17.59
22269;BMP280;11303;50.772;19.670;2023-08-07T07:15:27;97865.47;;;17.32
22269;BMP280;11303;50.772;19.670;2023-08-07T07:17:29;97856.00;;;17.19
22269;BMP280;11303;50.772;19.670;2023-08-07T07:19:31;97857.47;;;17.20
22269;BMP280;11303;50.772;19.670;2023-08-07T07:21:32;97858.34;;;17.13
22269;BMP280;11303;50.772;19.670;2023-08-07T07:23:34;97869.66;;;17.10
22269;BMP280;11303;50.772;19.670;2023-08-07T07:25:36;97871.97;;;17.08
22269;BMP280;11303;50.772;19.670;2023-08-07T07:27:39;97871.91;;;16.91
22269;BMP280;11303;50.772;19.670;2023-08-07T07:29:40;97871.16;;;16.71
22269;BMP280;11303;50.772;19.670;2023-08-07T07:31:42;97869.28;;;16.48
22269;BMP280;11303;50.772;19.670;2023-08-07T07:33:44;97867.16;;;16.19
22269;BMP280;11303;50.772;19.670;2023-08-07T07:35:46;97873.53;;;15.95
22269;BMP280;11303;50.772;19.670;2023-08-07T07:37:47;97877.22;;;15.70
22269;BMP280;11303;50.772;19.670;2023-08-07T07:39:49;97878.03;;;15.36
22269;BMP280;11303;50.772;19.670;2023-08-07T07:41:51;97906.44;;;15.03
22269;BMP280;11303;50.772;19.670;2023-08-07T07:43:52;97902.28;;;14.68
22269;BMP280;11303;50.772;19.670;2023-08-07T07:45:57;97911.19;;;14.25
22269;BMP280;11303;50.772;19.670;2023-08-07T07:47:59;97914.72;;;13.97
22269;BMP280;11303;50.772;19.670;2023-08-07T07:50:06;97906.63;;;13.70
22269;BMP280;11303;50.772;19.670;2023-08-07T07:52:08;97914.53;;;13.63
22269;BMP280;11303;50.772;19.670;2023-08-07T07:54:10;97909.69;;;13.54
22269;BMP280;11303;50.772;19.670;2023-08-07T07:56:15;97911.91;;;13.59
22269;BMP280;11303;50.772;19.670;2023-08-07T07:58:17;97920.06;;;13.76
22269;BMP280;11303;50.772;19.670;2023-08-07T08:00:19;97920.72;;;13.94
22269;BMP280;11303;50.772;19.670;2023-08-07T08:02:21;97935.94;;;14.14
22269;BMP280;11303;50.772;19.670;2023-08-07T08:04:23;97923.81;;;14.34
22269;BMP280;11303;50.772;19.670;2023-08-07T08:06:25;97936.44;;;14.46
22269;BMP280;11303;50.772;19.670;2023-08-07T08:08:27;97937.88;;;14.55
22269;BMP280;11303;50.772;19.670;2023-08-07T08:10:29;97944.53;;;14.63
22269;BMP280;11303;50.772;19.670;2023-08-07T08:12:31;97942.63;;;14.67
22269;BMP280;11303;50.772;19.670;2023-08-07T08:14:32;97945.22;;;14.74
22269;BMP280;11303;50.772;19.670;2023-08-07T08:16:51;97944.53;;;14.63
22269;BMP280;11303;50.772;19.670;2023-08-07T08:18:52;97939.00;;;14.54
22269;BMP280;11303;50.772;19.670;2023-08-07T08:20:54;97936.38;;;14.54
22269;BMP280;11303;50.772;19.670;2023-08-07T08:22:56;97946.75;;;14.64
22269;BMP280;11303;50.772;19.670;2023-08-07T08:24:57;97948.94;;;14.73
22269;BMP280;11303;50.772;19.670;2023-08-07T08:26:59;97945.25;;;14.67
22269;BMP280;11303;50.772;19.670;2023-08-07T08:29:01;97940.78;;;14.64
22269;BMP280;11303;50.772;19.670;2023-08-07T08:31:02;97947.53;;;14.61
22269;BMP280;11303;50.772;19.670;2023-08-07T08:33:04;97947.97;;;14.56
22269;BMP280;11303;50.772;19.670;2023-08-07T08:35:07;97942.38;;;14.51
22269;BMP280;11303;50.772;19.670;2023-08-07T08:37:09;97951.75;;;14.48
22269;BMP280;11303;50.772;19.670;2023-08-07T08:39:12;97950.72;;;14.38
22269;BMP280;11303;50.772;19.670;2023-08-07T08:41:14;97960.41;;;14.34
22269;BMP280;11303;50.772;19.670;2023-08-07T08:43:16;97958.94;;;14.33
22269;BMP280;11303;50.772;19.670;2023-08-07T08:45:18;97958.22;;;14.33
22269;BMP280;11303;50.772;19.670;2023-08-07T08:47:23;97967.59;;;14.26
22269;BMP280;11303;50.772;19.670;2023-08-07T08:49:35;97970.22;;;14.19
22269;BMP280;11303;50.772;19.670;2023-08-07T08:51:37;97972.53;;;14.14
22269;BMP280;11303;50.772;19.670;2023-08-07T08:53:39;97963.59;;;14.00
22269;BMP280;11303;50.772;19.670;2023-08-07T08:55:41;97976.31;;;13.91
22269;BMP280;11303;50.772;19.670;2023-08-07T08:57:47;97975.22;;;13.85
22269;BMP280;11303;50.772;19.670;2023-08-07T08:59:50;97973.69;;;13.98
22269;BMP280;11303;50.772;19.670;2023-08-07T09:01:52;97986.69;;;14.09
22269;BMP280;11303;50.772;19.670;2023-08-07T09:03:55;97972.88;;;14.12
22269;BMP280;11303;50.772;19.670;2023-08-07T09:05:58;97985.53;;;14.17
22269;BMP280;11303;50.772;19.670;2023-08-07T09:08:00;97991.44;;;14.28
22269;BMP280;11303;50.772;19.670;2023-08-07T09:10:03;97988.75;;;14.39
22269;BMP280;11303;50.772;19.670;2023-08-07T09:12:06;97996.56;;;14.50
22269;BMP280;11303;50.772;19.670;2023-08-07T09:14:11;97994.94;;;14.67
22269;BMP280;11303;50.772;19.670;2023-08-07T09:16:17;97988.88;;;14.81
22269;BMP280;11303;50.772;19.670;2023-08-07T09:18:19;97988.41;;;14.93
22269;BMP280;11303;50.772;19.670;2023-08-07T09:20:22;97990.88;;;15.07
22269;BMP280;11303;50.772;19.670;2023-08-07T09:22:24;97996.66;;;15.29
22269;BMP280;11303;50.772;19.670;2023-08-07T09:24:26;98003.69;;;15.36
22269;BMP280;11303;50.772;19.670;2023-08-07T09:26:28;98000.59;;;15.48
22269;BMP280;11303;50.772;19.670;2023-08-07T09:28:32;97990.16;;;15.45
22269;BMP280;11303;50.772;19.670;2023-08-07T09:30:34;97985.13;;;15.58
22269;BMP280;11303;50.772;19.670;2023-08-07T09:32:37;97991.84;;;15.62
22269;BMP280;11303;50.772;19.670;2023-08-07T09:34:41;97990.81;;;15.53
22269;BMP280;11303;50.772;19.670;2023-08-07T09:36:43;97993.59;;;15.35
22269;BMP280;11303;50.772;19.670;2023-08-07T09:38:49;97992.22;;;15.23
22269;BMP280;11303;50.772;19.670;2023-08-07T09:40:51;97992.13;;;15.34
22269;BMP280;11303;50.772;19.670;2023-08-07T09:42:54;97987.63;;;15.38
22269;BMP280;11303;50.772;19.670;2023-08-07T09:44:55;97992.66;;;15.56
22269;BMP280;11303;50.772;19.670;2023-08-07T09:46:57;97993.75;;;15.89
22269;BMP280;11303;50.772;19.670;2023-08-07T09:48:59;97997.53;;;16.15
22269;BMP280;11303;50.772;19.670;2023-08-07T09:51:01;98003.75;;;16.25
22269;BMP280;11303;50.772;19.670;2023-08-07T09:53:04;97999.31;;;16.22
22269;BMP280;11303;50.772;19.670;2023-08-07T09:55:06;98003.81;;;16.21
22269;BMP280;11303;50.772;19.670;2023-08-07T09:57:09;98009.72;;;16.29
22269;BMP280;11303;50.772;19.670;2023-08-07T09:59:10;98013.63;;;16.44
22269;BMP280;11303;50.772;19.670;2023-08-07T10:01:15;98017.66;;;16.72
22269;BMP280;11303;50.772;19.670;2023-08-07T10:03:17;98032.25;;;17.01
22269;BMP280;11303;50.772;19.670;2023-08-07T10:05:19;98018.31;;;17.24
22269;BMP280;11303;50.772;19.670;2023-08-07T10:07:21;98006.94;;;17.30
22269;BMP280;11303;50.772;19.670;2023-08-07T10:09:23;98013.03;;;17.27
22269;BMP280;11303;50.772;19.670;2023-08-07T10:11:25;98008.91;;;17.26
22269;BMP280;11303;50.772;19.670;2023-08-07T10:13:28;98012.53;;;17.12
22269;BMP280;11303;50.772;19.670;2023-08-07T10:15:34;98015.16;;;16.89
22269;BMP280;11303;50.772;19.670;2023-08-07T10:17:37;98006.72;;;16.54
22269;BMP280;11303;50.772;19.670;2023-08-07T10:19:39;98008.22;;;16.28
22269;BMP280;11303;50.772;19.670;2023-08-07T10:21:41;98004.34;;;16.09
22269;BMP280;11303;50.772;19.670;2023-08-07T10:23:44;98001.13;;;15.98
22269;BMP280;11303;50.772;19.670;2023-08-07T10:25:49;97999.13;;;15.78
22269;BMP280;11303;50.772;19.670;2023-08-07T10:27:53;98008.66;;;15.65
22269;BMP280;11303;50.772;19.670;2023-08-07T10:29:57;98011.75;;;15.56
22269;BMP280;11303;50.772;19.670;2023-08-07T10:32:02;98007.09;;;15.71
22269;BMP280;11303;50.772;19.670;2023-08-07T10:34:04;98006.88;;;15.89
22269;BMP280;11303;50.772;19.670;2023-08-07T10:36:10;98011.63;;;15.98
22269;BMP280;11303;50.772;19.670;2023-08-07T10:38:12;98014.91;;;16.05
22269;BMP280;11303;50.772;19.670;2023-08-07T10:40:13;98018.44;;;16.19
22269;BMP280;11303;50.772;19.670;2023-08-07T10:42:15;98023.53;;;16.33
22269;BMP280;11303;50.772;19.670;2023-08-07T10:44:21;98024.34;;;16.54
22269;BMP280;11303;50.772;19.670;2023-08-07T10:46:24;98031.00;;;16.85
22269;BMP280;11303;50.772;19.670;2023-08-07T10:48:27;98033.25;;;17.27
22269;BMP280;11303;50.772;19.670;2023-08-07T10:50:31;98033.66;;;17.49
22269;BMP280;11303;50.772;19.670;2023-08-07T10:52:33;98033.97;;;17.51
22269;BMP280;11303;50.772;19.670;2023-08-07T10:54:45;98029.50;;;17.68
22269;BMP280;11303;50.772;19.670;2023-08-07T10:56:52;98036.25;;;17.89
22269;BMP280;11303;50.772;19.670;2023-08-07T10:58:55;98037.50;;;17.81
22269;BMP280;11303;50.772;19.670;2023-08-07T11:01:20;98025.28;;;17.74
22269;BMP280;11303;50.772;19.670;2023-08-07T11:03:26;98037.38;;;17.88
22269;BMP280;11303;50.772;19.670;2023-08-07T11:05:30;98040.59;;;17.95
22269;BMP280;11303;50.772;19.670;2023-08-07T11:07:33;98036.34;;;18.02
22269;BMP280;11303;50.772;19.670;2023-08-07T11:09:35;98030.47;;;17.94
22269;BMP280;11303;50.772;19.670;2023-08-07T11:11:48;98036.06;;;17.96
22269;BMP280;11303;50.772;19.670;2023-08-07T11:13:50;98033.78;;;18.14
22269;BMP280;11303;50.772;19.670;2023-08-07T11:15:52;98059.44;;;18.10
22269;BMP280;11303;50.772;19.670;2023-08-07T11:17:54;98035.41;;;17.92
22269;BMP280;11303;50.772;19.670;2023-08-07T11:19:56;98037.25;;;17.75
22269;BMP280;11303;50.772;19.670;2023-08-07T11:21:58;98045.81;;;17.59
22269;BMP280;11303;50.772;19.670;2023-08-07T11:24:01;98043.69;;;17.54
22269;BMP280;11303;50.772;19.670;2023-08-07T11:26:02;98049.81;;;17.67
22269;BMP280;11303;50.772;19.670;2023-08-07T11:28:04;98053.03;;;17.75
22269;BMP280;11303;50.772;19.670;2023-08-07T11:30:10;98047.38;;;17.57
22269;BMP280;11303;50.772;19.670;2023-08-07T11:32:13;98052.63;;;17.57
22269;BMP280;11303;50.772;19.670;2023-08-07T11:34:17;98057.72;;;17.84
22269;BMP280;11303;50.772;19.670;2023-08-07T11:36:19;98068.44;;;18.29
22269;BMP280;11303;50.772;19.670;2023-08-07T11:38:38;98060.81;;;18.51
22269;BMP280;11303;50.772;19.670;2023-08-07T11:40:40;98065.91;;;18.58